sensor_id;sensor_type;location;lat;lon;timestamp;P1;durP1;ratioP1;P2;durP2;ratioP2
2219;SDS011;1116;51.502;7.414;2024-03-02T00:00:01;3.08;;;1.40;;
2219;SDS011;1116;51.502;7.414;2024-03-02T00:02:41;2.90;;;1.23;;
2219;SDS011;1116;51.502;7.414;2024-03-02T00:05:12;1.88;;;1.35;;
2219;SDS011;1116;51.502;7.414;2024-03-02T00:07:44;3.45;;;1.38;;
2219;SDS011;1116;51.502;7.414;2024-03-02T00:10:22;1.88;;;1.30;;
2219;SDS011;1116;51.502;7.414;2024-03-02T00:12:56;1.55;;;1.08;;
2219;SDS011;1116;51.502;7.414;2024-03-02T00:15:32;3.22;;;1.38;;
2219;SDS011;1116;51.502;7.414;2024-03-02T00:18:15;7.35;;;1.63;;
2219;SDS011;1116;51.502;7.414;2024-03-02T00:20:48;1.88;;;1.23;;
2219;SDS011;1116;51.502;7.414;2024-03-02T00:23:22;3.42;;;1.02;;
2219;SDS011;1116;51.502;7.414;2024-03-02T00:25:54;1.85;;;1.20;;
2219;SDS011;1116;51.502;7.414;2024-03-02T00:28:27;1.88;;;1.25;;
2219;SDS011;1116;51.502;7.414;2024-03-02T00:31:02;1.52;;;1.13;;
2219;SDS011;1116;51.502;7.414;2024-03-02T00:33:37;1.75;;;1.25;;
2219;SDS011;1116;51.502;7.414;2024-03-02T00:36:11;2.33;;;1.50;;
2219;SDS011;1116;51.502;7.414;2024-03-02T00:38:44;3.08;;;1.60;;
2219;SDS011;1116;51.502;7.414;2024-03-02T00:41:19;2.78;;;1.35;;
2219;SDS011;1116;51.502;7.414;2024-03-02T00:43:55;3.58;;;1.35;;
2219;SDS011;1116;51.502;7.414;2024-03-02T00:46:26;1.65;;;1.15;;
2219;SDS011;1116;51.502;7.414;2024-03-02T00:49:02;4.85;;;1.50;;
2219;SDS011;1116;51.502;7.414;2024-03-02T00:51:34;2.15;;;1.33;;
2219;SDS011;1116;51.502;7.414;2024-03-02T00:54:05;1.83;;;1.00;;
2219;SDS011;1116;51.502;7.414;2024-03-02T00:56:37;2.65;;;1.50;;
2219;SDS011;1116;51.502;7.414;2024-03-02T00:59:07;3.10;;;1.50;;
2219;SDS011;1116;51.502;7.414;2024-03-02T01:01:39;2.03;;;1.30;;
2219;SDS011;1116;51.502;7.414;2024-03-02T01:04:12;2.75;;;1.30;;
2219;SDS011;1116;51.502;7.414;2024-03-02T01:06:42;2.90;;;1.20;;
2219;SDS011;1116;51.502;7.414;2024-03-02T01:09:13;4.47;;;1.40;;
2219;SDS011;1116;51.502;7.414;2024-03-02T01:11:44;4.28;;;1.65;;
2219;SDS011;1116;51.502;7.414;2024-03-02T01:14:14;3.10;;;1.58;;
2219;SDS011;1116;51.502;7.414;2024-03-02T01:16:44;2.30;;;1.40;;
2219;SDS011;1116;51.502;7.414;2024-03-02T01:19:18;3.00;;;1.38;;
2219;SDS011;1116;51.502;7.414;2024-03-02T01:21:48;3.38;;;1.48;;
2219;SDS011;1116;51.502;7.414;2024-03-02T01:24:19;2.35;;;1.48;;
2219;SDS011;1116;51.502;7.414;2024-03-02T01:26:50;3.70;;;1.23;;
2219;SDS011;1116;51.502;7.414;2024-03-02T01:29:20;2.17;;;1.20;;
2219;SDS011;1116;51.502;7.414;2024-03-02T01:31:50;2.28;;;1.50;;
2219;SDS011;1116;51.502;7.414;2024-03-02T01:34:22;3.67;;;1.50;;
2219;SDS011;1116;51.502;7.414;2024-03-02T01:36:53;2.03;;;1.15;;
2219;SDS011;1116;51.502;7.414;2024-03-02T01:39:23;3.45;;;1.40;;
2219;SDS011;1116;51.502;7.414;2024-03-02T01:41:53;2.45;;;1.15;;
2219;SDS011;1116;51.502;7.414;2024-03-02T01:44:23;4.45;;;1.38;;
2219;SDS011;1116;51.502;7.414;2024-03-02T01:46:53;4.57;;;1.50;;
2219;SDS011;1116;51.502;7.414;2024-03-02T01:49:26;2.63;;;1.58;;
2219;SDS011;1116;51.502;7.414;2024-03-02T01:51:56;1.90;;;1.00;;
2219;SDS011;1116;51.502;7.414;2024-03-02T01:54:26;3.47;;;1.25;;
2219;SDS011;1116;51.502;7.414;2024-03-02T01:56:56;2.20;;;1.25;;
2219;SDS011;1116;51.502;7.414;2024-03-02T01:59:26;3.10;;;1.40;;
2219;SDS011;1116;51.502;7.414;2024-03-02T02:01:57;3.45;;;1.13;;
2219;SDS011;1116;51.502;7.414;2024-03-02T02:04:30;2.88;;;1.60;;
2219;SDS011;1116;51.502;7.414;2024-03-02T02:07:00;1.98;;;1.20;;
2219;SDS011;1116;51.502;7.414;2024-03-02T02:09:30;3.60;;;1.40;;
2219;SDS011;1116;51.502;7.414;2024-03-02T02:12:00;4.57;;;1.40;;
2219;SDS011;1116;51.502;7.414;2024-03-02T02:14:33;2.80;;;1.35;;
2219;SDS011;1116;51.502;7.414;2024-03-02T02:17:03;1.98;;;1.10;;
2219;SDS011;1116;51.502;7.414;2024-03-02T02:19:36;2.40;;;1.27;;
2219;SDS011;1116;51.502;7.414;2024-03-02T02:22:08;2.35;;;1.30;;
2219;SDS011;1116;51.502;7.414;2024-03-02T02:24:39;3.25;;;1.30;;
2219;SDS011;1116;51.502;7.414;2024-03-02T02:27:10;1.55;;;1.15;;
2219;SDS011;1116;51.502;7.414;2024-03-02T02:29:41;2.13;;;1.27;;
2219;SDS011;1116;51.502;7.414;2024-03-02T02:32:11;2.50;;;1.05;;
2219;SDS011;1116;51.502;7.414;2024-03-02T02:34:41;2.90;;;1.08;;
2219;SDS011;1116;51.502;7.414;2024-03-02T02:37:14;1.85;;;1.20;;
2219;SDS011;1116;51.502;7.414;2024-03-02T02:39:44;2.35;;;1.20;;
2219;SDS011;1116;51.502;7.414;2024-03-02T02:42:15;2.75;;;1.00;;
2219;SDS011;1116;51.502;7.414;2024-03-02T02:44:45;3.80;;;1.38;;
2219;SDS011;1116;51.502;7.414;2024-03-02T02:47:15;2.58;;;1.20;;
2219;SDS011;1116;51.502;7.414;2024-03-02T02:49:45;3.10;;;1.40;;
2219;SDS011;1116;51.502;7.414;2024-03-02T02:52:18;2.92;;;1.20;;
2219;SDS011;1116;51.502;7.414;2024-03-02T02:54:48;2.17;;;1.13;;
2219;SDS011;1116;51.502;7.414;2024-03-02T02:57:19;1.92;;;1.10;;
2219;SDS011;1116;51.502;7.414;2024-03-02T02:59:49;2.17;;;1.10;;
2219;SDS011;1116;51.502;7.414;2024-03-02T03:02:19;5.03;;;1.40;;
2219;SDS011;1116;51.502;7.414;2024-03-02T03:04:49;2.13;;;1.33;;
2219;SDS011;1116;51.502;7.414;2024-03-02T03:07:22;1.48;;;1.05;;
2219;SDS011;1116;51.502;7.414;2024-03-02T03:09:52;1.80;;;1.08;;
2219;SDS011;1116;51.502;7.414;2024-03-02T03:12:22;3.95;;;1.08;;
2219;SDS011;1116;51.502;7.414;2024-03-02T03:14:52;5.07;;;1.15;;
2219;SDS011;1116;51.502;7.414;2024-03-02T03:17:22;1.58;;;1.00;;
2219;SDS011;1116;51.502;7.414;2024-03-02T03:19:52;2.35;;;1.23;;
2219;SDS011;1116;51.502;7.414;2024-03-02T03:22:25;4.05;;;1.00;;
2219;SDS011;1116;51.502;7.414;2024-03-02T03:24:55;1.98;;;1.00;;
2219;SDS011;1116;51.502;7.414;2024-03-02T03:27:25;3.80;;;1.05;;
2219;SDS011;1116;51.502;7.414;2024-03-02T03:29:55;4.88;;;1.10;;
2219;SDS011;1116;51.502;7.414;2024-03-02T03:32:25;5.70;;;1.00;;
2219;SDS011;1116;51.502;7.414;2024-03-02T03:34:55;1.90;;;1.20;;
2219;SDS011;1116;51.502;7.414;2024-03-02T03:37:28;2.25;;;1.05;;
2219;SDS011;1116;51.502;7.414;2024-03-02T03:40:01;3.72;;;0.88;;
2219;SDS011;1116;51.502;7.414;2024-03-02T03:42:36;5.13;;;1.10;;
2219;SDS011;1116;51.502;7.414;2024-03-02T03:45:07;2.97;;;0.80;;
2219;SDS011;1116;51.502;7.414;2024-03-02T03:47:38;1.65;;;0.80;;
2219;SDS011;1116;51.502;7.414;2024-03-02T03:50:08;1.90;;;1.00;;
2219;SDS011;1116;51.502;7.414;2024-03-02T03:52:42;3.13;;;1.17;;
2219;SDS011;1116;51.502;7.414;2024-03-02T03:55:12;1.88;;;0.85;;
2219;SDS011;1116;51.502;7.414;2024-03-02T03:57:42;1.38;;;0.90;;
2219;SDS011;1116;51.502;7.414;2024-03-02T04:00:12;2.40;;;1.30;;
2219;SDS011;1116;51.502;7.414;2024-03-02T04:02:44;2.75;;;1.05;;
2219;SDS011;1116;51.502;7.414;2024-03-02T04:05:14;1.08;;;0.88;;
2219;SDS011;1116;51.502;7.414;2024-03-02T04:07:47;1.83;;;0.85;;
2219;SDS011;1116;51.502;7.414;2024-03-02T04:10:17;1.45;;;0.80;;
2219;SDS011;1116;51.502;7.414;2024-03-02T04:12:48;1.85;;;1.02;;
2219;SDS011;1116;51.502;7.414;2024-03-02T04:15:19;0.98;;;0.80;;
2219;SDS011;1116;51.502;7.414;2024-03-02T04:17:50;1.92;;;0.90;;
2219;SDS011;1116;51.502;7.414;2024-03-02T04:20:21;3.95;;;1.10;;
2219;SDS011;1116;51.502;7.414;2024-03-02T04:22:54;3.30;;;1.10;;
2219;SDS011;1116;51.502;7.414;2024-03-02T04:25:24;1.63;;;0.98;;
2219;SDS011;1116;51.502;7.414;2024-03-02T04:27:54;1.95;;;1.08;;
2219;SDS011;1116;51.502;7.414;2024-03-02T04:30:24;2.35;;;1.15;;
2219;SDS011;1116;51.502;7.414;2024-03-02T04:32:54;1.20;;;0.73;;
2219;SDS011;1116;51.502;7.414;2024-03-02T04:35:24;1.60;;;0.80;;
2219;SDS011;1116;51.502;7.414;2024-03-02T04:37:57;4.63;;;1.35;;
2219;SDS011;1116;51.502;7.414;2024-03-02T04:40:27;1.80;;;1.17;;
2219;SDS011;1116;51.502;7.414;2024-03-02T04:42:58;1.83;;;0.88;;
2219;SDS011;1116;51.502;7.414;2024-03-02T04:45:29;1.67;;;0.85;;
2219;SDS011;1116;51.502;7.414;2024-03-02T04:47:59;0.95;;;0.70;;
2219;SDS011;1116;51.502;7.414;2024-03-02T04:50:29;1.33;;;1.00;;
2219;SDS011;1116;51.502;7.414;2024-03-02T04:53:02;2.95;;;0.98;;
2219;SDS011;1116;51.502;7.414;2024-03-02T04:55:33;2.97;;;0.98;;
2219;SDS011;1116;51.502;7.414;2024-03-02T04:58:16;1.65;;;0.82;;
2219;SDS011;1116;51.502;7.414;2024-03-02T05:00:46;1.38;;;1.00;;
2219;SDS011;1116;51.502;7.414;2024-03-02T05:03:16;2.78;;;1.02;;
2219;SDS011;1116;51.502;7.414;2024-03-02T05:05:46;2.58;;;0.75;;
2219;SDS011;1116;51.502;7.414;2024-03-02T05:08:18;1.70;;;1.00;;
2219;SDS011;1116;51.502;7.414;2024-03-02T05:10:48;3.08;;;0.90;;
2219;SDS011;1116;51.502;7.414;2024-03-02T05:13:18;1.55;;;0.93;;
2219;SDS011;1116;51.502;7.414;2024-03-02T05:15:47;2.75;;;1.25;;
2219;SDS011;1116;51.502;7.414;2024-03-02T05:18:17;3.35;;;0.93;;
2219;SDS011;1116;51.502;7.414;2024-03-02T05:20:47;2.30;;;1.08;;
2219;SDS011;1116;51.502;7.414;2024-03-02T05:23:20;3.25;;;1.00;;
2219;SDS011;1116;51.502;7.414;2024-03-02T05:25:50;1.65;;;1.05;;
2219;SDS011;1116;51.502;7.414;2024-03-02T05:28:21;1.70;;;1.02;;
2219;SDS011;1116;51.502;7.414;2024-03-02T05:30:51;3.55;;;1.05;;
2219;SDS011;1116;51.502;7.414;2024-03-02T05:33:21;2.53;;;1.50;;
2219;SDS011;1116;51.502;7.414;2024-03-02T05:35:51;1.63;;;1.00;;
2219;SDS011;1116;51.502;7.414;2024-03-02T05:38:24;2.80;;;1.40;;
2219;SDS011;1116;51.502;7.414;2024-03-02T05:40:54;2.72;;;1.30;;
2219;SDS011;1116;51.502;7.414;2024-03-02T05:43:24;2.35;;;1.17;;
2219;SDS011;1116;51.502;7.414;2024-03-02T05:45:55;3.63;;;1.40;;
2219;SDS011;1116;51.502;7.414;2024-03-02T05:48:25;3.10;;;1.35;;
2219;SDS011;1116;51.502;7.414;2024-03-02T05:50:55;2.95;;;1.63;;
2219;SDS011;1116;51.502;7.414;2024-03-02T05:53:28;3.70;;;1.58;;
2219;SDS011;1116;51.502;7.414;2024-03-02T05:55:58;3.88;;;1.75;;
2219;SDS011;1116;51.502;7.414;2024-03-02T05:58:31;4.57;;;1.70;;
2219;SDS011;1116;51.502;7.414;2024-03-02T06:01:12;2.28;;;1.48;;
2219;SDS011;1116;51.502;7.414;2024-03-02T06:03:45;3.50;;;1.60;;
2219;SDS011;1116;51.502;7.414;2024-03-02T06:06:15;4.25;;;1.65;;
2219;SDS011;1116;51.502;7.414;2024-03-02T06:08:48;7.18;;;2.10;;
2219;SDS011;1116;51.502;7.414;2024-03-02T06:11:18;3.75;;;1.90;;
2219;SDS011;1116;51.502;7.414;2024-03-02T06:13:49;4.30;;;1.80;;
2219;SDS011;1116;51.502;7.414;2024-03-02T06:16:19;3.70;;;1.70;;
2219;SDS011;1116;51.502;7.414;2024-03-02T06:18:49;5.45;;;1.85;;
2219;SDS011;1116;51.502;7.414;2024-03-02T06:21:20;3.05;;;1.75;;
2219;SDS011;1116;51.502;7.414;2024-03-02T06:23:53;3.53;;;1.90;;
2219;SDS011;1116;51.502;7.414;2024-03-02T06:26:23;7.55;;;2.03;;
2219;SDS011;1116;51.502;7.414;2024-03-02T06:28:53;3.85;;;1.52;;
2219;SDS011;1116;51.502;7.414;2024-03-02T06:31:23;4.18;;;1.67;;
2219;SDS011;1116;51.502;7.414;2024-03-02T06:33:53;2.15;;;1.50;;
2219;SDS011;1116;51.502;7.414;2024-03-02T06:36:23;10.27;;;3.90;;
2219;SDS011;1116;51.502;7.414;2024-03-02T06:38:56;5.63;;;2.20;;
2219;SDS011;1116;51.502;7.414;2024-03-02T06:41:26;4.38;;;1.67;;
2219;SDS011;1116;51.502;7.414;2024-03-02T06:43:57;4.07;;;1.83;;
2219;SDS011;1116;51.502;7.414;2024-03-02T06:46:28;3.20;;;1.90;;
2219;SDS011;1116;51.502;7.414;2024-03-02T06:48:58;2.22;;;1.65;;
2219;SDS011;1116;51.502;7.414;2024-03-02T06:51:29;4.38;;;2.17;;
2219;SDS011;1116;51.502;7.414;2024-03-02T06:54:02;3.88;;;1.98;;
2219;SDS011;1116;51.502;7.414;2024-03-02T06:56:32;3.25;;;1.73;;
2219;SDS011;1116;51.502;7.414;2024-03-02T06:59:02;7.88;;;1.75;;
2219;SDS011;1116;51.502;7.414;2024-03-02T07:01:32;4.45;;;2.28;;
2219;SDS011;1116;51.502;7.414;2024-03-02T07:04:02;4.32;;;2.30;;
2219;SDS011;1116;51.502;7.414;2024-03-02T07:06:33;2.80;;;1.60;;
2219;SDS011;1116;51.502;7.414;2024-03-02T07:09:05;4.80;;;2.00;;
2219;SDS011;1116;51.502;7.414;2024-03-02T07:11:37;3.85;;;2.25;;
2219;SDS011;1116;51.502;7.414;2024-03-02T07:14:07;4.43;;;2.10;;
2219;SDS011;1116;51.502;7.414;2024-03-02T07:16:38;4.55;;;2.17;;
2219;SDS011;1116;51.502;7.414;2024-03-02T07:19:07;3.55;;;2.00;;
2219;SDS011;1116;51.502;7.414;2024-03-02T07:21:37;5.53;;;2.10;;
2219;SDS011;1116;51.502;7.414;2024-03-02T07:24:11;4.60;;;1.92;;
2219;SDS011;1116;51.502;7.414;2024-03-02T07:26:42;4.50;;;2.10;;
2219;SDS011;1116;51.502;7.414;2024-03-02T07:29:15;4.47;;;1.75;;
2219;SDS011;1116;51.502;7.414;2024-03-02T07:31:46;5.90;;;2.25;;
2219;SDS011;1116;51.502;7.414;2024-03-02T07:34:16;5.47;;;1.73;;
2219;SDS011;1116;51.502;7.414;2024-03-02T07:36:46;5.88;;;1.77;;
2219;SDS011;1116;51.502;7.414;2024-03-02T07:39:19;3.15;;;1.80;;
2219;SDS011;1116;51.502;7.414;2024-03-02T07:41:49;3.90;;;2.00;;
2219;SDS011;1116;51.502;7.414;2024-03-02T07:44:19;4.57;;;1.88;;
2219;SDS011;1116;51.502;7.414;2024-03-02T07:46:49;4.53;;;1.80;;
2219;SDS011;1116;51.502;7.414;2024-03-02T07:49:19;4.43;;;1.85;;
2219;SDS011;1116;51.502;7.414;2024-03-02T07:51:50;5.55;;;2.20;;
2219;SDS011;1116;51.502;7.414;2024-03-02T07:54:23;4.47;;;2.20;;
2219;SDS011;1116;51.502;7.414;2024-03-02T07:56:53;4.20;;;1.98;;
2219;SDS011;1116;51.502;7.414;2024-03-02T07:59:23;4.55;;;2.15;;
2219;SDS011;1116;51.502;7.414;2024-03-02T08:01:53;6.25;;;2.13;;
2219;SDS011;1116;51.502;7.414;2024-03-02T08:04:24;2.80;;;1.67;;
2219;SDS011;1116;51.502;7.414;2024-03-02T08:06:54;3.22;;;1.77;;
2219;SDS011;1116;51.502;7.414;2024-03-02T08:09:27;2.38;;;1.73;;
2219;SDS011;1116;51.502;7.414;2024-03-02T08:11:57;3.75;;;1.77;;
2219;SDS011;1116;51.502;7.414;2024-03-02T08:14:27;2.75;;;1.50;;
2219;SDS011;1116;51.502;7.414;2024-03-02T08:16:57;3.97;;;2.25;;
2219;SDS011;1116;51.502;7.414;2024-03-02T08:19:28;4.18;;;1.60;;
2219;SDS011;1116;51.502;7.414;2024-03-02T08:21:58;2.97;;;1.65;;
2219;SDS011;1116;51.502;7.414;2024-03-02T08:24:31;2.85;;;1.55;;
2219;SDS011;1116;51.502;7.414;2024-03-02T08:27:01;1.70;;;1.05;;
2219;SDS011;1116;51.502;7.414;2024-03-02T08:29:31;4.22;;;1.38;;
2219;SDS011;1116;51.502;7.414;2024-03-02T08:32:01;3.17;;;1.38;;
2219;SDS011;1116;51.502;7.414;2024-03-02T08:34:32;5.50;;;1.77;;
2219;SDS011;1116;51.502;7.414;2024-03-02T08:37:03;2.70;;;1.17;;
2219;SDS011;1116;51.502;7.414;2024-03-02T08:39:36;2.05;;;1.20;;
2219;SDS011;1116;51.502;7.414;2024-03-02T08:42:06;3.08;;;1.20;;
2219;SDS011;1116;51.502;7.414;2024-03-02T08:44:36;1.70;;;1.13;;
2219;SDS011;1116;51.502;7.414;2024-03-02T08:47:07;1.92;;;1.13;;
2219;SDS011;1116;51.502;7.414;2024-03-02T08:49:37;4.40;;;1.30;;
2219;SDS011;1116;51.502;7.414;2024-03-02T08:52:07;1.33;;;0.90;;
2219;SDS011;1116;51.502;7.414;2024-03-02T08:54:39;3.40;;;0.93;;
2219;SDS011;1116;51.502;7.414;2024-03-02T08:57:09;3.53;;;1.23;;
2219;SDS011;1116;51.502;7.414;2024-03-02T08:59:40;2.50;;;1.00;;
2219;SDS011;1116;51.502;7.414;2024-03-02T09:02:10;2.15;;;1.10;;
2219;SDS011;1116;51.502;7.414;2024-03-02T09:04:41;1.83;;;0.95;;
2219;SDS011;1116;51.502;7.414;2024-03-02T09:07:11;1.27;;;1.00;;
2219;SDS011;1116;51.502;7.414;2024-03-02T09:09:44;2.70;;;1.00;;
2219;SDS011;1116;51.502;7.414;2024-03-02T09:12:14;2.13;;;1.00;;
2219;SDS011;1116;51.502;7.414;2024-03-02T09:14:44;2.30;;;1.13;;
2219;SDS011;1116;51.502;7.414;2024-03-02T09:17:15;1.20;;;0.70;;
2219;SDS011;1116;51.502;7.414;2024-03-02T09:19:45;2.83;;;1.23;;
2219;SDS011;1116;51.502;7.414;2024-03-02T09:22:19;6.53;;;1.35;;
2219;SDS011;1116;51.502;7.414;2024-03-02T09:24:52;3.47;;;1.20;;
2219;SDS011;1116;51.502;7.414;2024-03-02T09:27:22;1.63;;;0.93;;
2219;SDS011;1116;51.502;7.414;2024-03-02T09:29:52;2.42;;;1.17;;
2219;SDS011;1116;51.502;7.414;2024-03-02T09:32:22;1.77;;;1.00;;
2219;SDS011;1116;51.502;7.414;2024-03-02T09:34:52;2.33;;;1.50;;
2219;SDS011;1116;51.502;7.414;2024-03-02T09:37:22;1.40;;;0.93;;
2219;SDS011;1116;51.502;7.414;2024-03-02T09:39:55;4.43;;;1.15;;
2219;SDS011;1116;51.502;7.414;2024-03-02T09:42:26;2.38;;;0.90;;
2219;SDS011;1116;51.502;7.414;2024-03-02T09:44:56;1.50;;;1.00;;
2219;SDS011;1116;51.502;7.414;2024-03-02T09:47:26;2.10;;;0.90;;
2219;SDS011;1116;51.502;7.414;2024-03-02T09:49:56;3.35;;;0.90;;
2219;SDS011;1116;51.502;7.414;2024-03-02T09:52:26;1.15;;;0.90;;
2219;SDS011;1116;51.502;7.414;2024-03-02T09:55:00;1.77;;;0.80;;
2219;SDS011;1116;51.502;7.414;2024-03-02T10:00:05;4.00;;;1.10;;
2219;SDS011;1116;51.502;7.414;2024-03-02T10:02:41;2.08;;;0.80;;
2219;SDS011;1116;51.502;7.414;2024-03-02T10:05:12;2.20;;;0.80;;
2219;SDS011;1116;51.502;7.414;2024-03-02T10:07:42;2.40;;;0.70;;
2219;SDS011;1116;51.502;7.414;2024-03-02T10:10:37;1.10;;;0.68;;
2219;SDS011;1116;51.502;7.414;2024-03-02T10:13:10;1.38;;;0.73;;
2219;SDS011;1116;51.502;7.414;2024-03-02T10:15:42;2.55;;;0.65;;
2219;SDS011;1116;51.502;7.414;2024-03-02T10:18:13;4.78;;;0.85;;
2219;SDS011;1116;51.502;7.414;2024-03-02T10:20:43;0.80;;;0.60;;
2219;SDS011;1116;51.502;7.414;2024-03-02T10:23:15;1.17;;;0.60;;
2219;SDS011;1116;51.502;7.414;2024-03-02T10:25:49;2.33;;;0.85;;
2219;SDS011;1116;51.502;7.414;2024-03-02T10:28:24;1.63;;;0.50;;
2219;SDS011;1116;51.502;7.414;2024-03-02T10:30:54;1.35;;;0.70;;
2219;SDS011;1116;51.502;7.414;2024-03-02T10:33:25;2.60;;;0.93;;
2219;SDS011;1116;51.502;7.414;2024-03-02T10:35:55;1.10;;;0.50;;
2219;SDS011;1116;51.502;7.414;2024-03-02T10:38:26;0.63;;;0.50;;
2219;SDS011;1116;51.502;7.414;2024-03-02T10:40:58;0.80;;;0.57;;
2219;SDS011;1116;51.502;7.414;2024-03-02T10:43:30;0.82;;;0.30;;
2219;SDS011;1116;51.502;7.414;2024-03-02T10:46:00;1.42;;;0.82;;
2219;SDS011;1116;51.502;7.414;2024-03-02T10:48:30;1.25;;;0.50;;
2219;SDS011;1116;51.502;7.414;2024-03-02T10:51:02;2.33;;;0.70;;
2219;SDS011;1116;51.502;7.414;2024-03-02T10:53:33;1.10;;;0.73;;
2219;SDS011;1116;51.502;7.414;2024-03-02T10:56:06;1.98;;;0.60;;
2219;SDS011;1116;51.502;7.414;2024-03-02T10:58:38;3.30;;;0.70;;
2219;SDS011;1116;51.502;7.414;2024-03-02T11:01:09;2.03;;;0.70;;
2219;SDS011;1116;51.502;7.414;2024-03-02T11:03:42;1.70;;;0.75;;
2219;SDS011;1116;51.502;7.414;2024-03-02T11:06:14;3.08;;;0.77;;
2219;SDS011;1116;51.502;7.414;2024-03-02T11:08:44;3.42;;;1.38;;
2219;SDS011;1116;51.502;7.414;2024-03-02T11:11:25;0.73;;;0.50;;
2219;SDS011;1116;51.502;7.414;2024-03-02T11:14:01;2.38;;;0.40;;
2219;SDS011;1116;51.502;7.414;2024-03-02T11:16:35;2.60;;;0.90;;
2219;SDS011;1116;51.502;7.414;2024-03-02T11:19:09;1.92;;;0.80;;
2219;SDS011;1116;51.502;7.414;2024-03-02T11:21:43;1.17;;;0.70;;
2219;SDS011;1116;51.502;7.414;2024-03-02T11:29:44;0.75;;;0.60;;
2219;SDS011;1116;51.502;7.414;2024-03-02T11:32:20;3.08;;;0.90;;
2219;SDS011;1116;51.502;7.414;2024-03-02T11:34:52;1.08;;;0.43;;
2219;SDS011;1116;51.502;7.414;2024-03-02T11:37:22;0.88;;;0.60;;
2219;SDS011;1116;51.502;7.414;2024-03-02T11:39:53;0.70;;;0.50;;
2219;SDS011;1116;51.502;7.414;2024-03-02T11:42:26;3.25;;;0.90;;
2219;SDS011;1116;51.502;7.414;2024-03-02T11:44:56;1.17;;;0.35;;
2219;SDS011;1116;51.502;7.414;2024-03-02T11:47:26;1.42;;;0.65;;
2219;SDS011;1116;51.502;7.414;2024-03-02T11:50:05;2.22;;;0.55;;
2219;SDS011;1116;51.502;7.414;2024-03-02T11:52:36;1.55;;;0.90;;
2219;SDS011;1116;51.502;7.414;2024-03-02T11:55:07;1.70;;;0.38;;
2219;SDS011;1116;51.502;7.414;2024-03-02T11:57:41;1.25;;;0.52;;
2219;SDS011;1116;51.502;7.414;2024-03-02T12:00:16;1.33;;;0.75;;
2219;SDS011;1116;51.502;7.414;2024-03-02T12:05:17;1.42;;;0.60;;
2219;SDS011;1116;51.502;7.414;2024-03-02T12:07:48;6.63;;;0.63;;
2219;SDS011;1116;51.502;7.414;2024-03-02T12:10:26;0.93;;;0.60;;
2219;SDS011;1116;51.502;7.414;2024-03-02T12:13:00;1.38;;;0.50;;
2219;SDS011;1116;51.502;7.414;2024-03-02T12:15:33;0.88;;;0.50;;
2219;SDS011;1116;51.502;7.414;2024-03-02T12:18:05;1.38;;;0.60;;
2219;SDS011;1116;51.502;7.414;2024-03-02T12:20:36;1.67;;;0.77;;
2219;SDS011;1116;51.502;7.414;2024-03-02T12:23:06;1.05;;;0.50;;
2219;SDS011;1116;51.502;7.414;2024-03-02T12:25:38;1.15;;;0.63;;
2219;SDS011;1116;51.502;7.414;2024-03-02T12:28:11;2.75;;;0.85;;
2219;SDS011;1116;51.502;7.414;2024-03-02T12:30:42;2.75;;;0.63;;
2219;SDS011;1116;51.502;7.414;2024-03-02T12:33:12;0.93;;;0.55;;
2219;SDS011;1116;51.502;7.414;2024-03-02T12:35:42;1.45;;;0.68;;
2219;SDS011;1116;51.502;7.414;2024-03-02T12:38:12;0.85;;;0.50;;
2219;SDS011;1116;51.502;7.414;2024-03-02T12:40:44;1.27;;;0.77;;
2219;SDS011;1116;51.502;7.414;2024-03-02T12:43:17;2.90;;;1.00;;
2219;SDS011;1116;51.502;7.414;2024-03-02T12:45:47;1.23;;;0.60;;
2219;SDS011;1116;51.502;7.414;2024-03-02T12:48:17;2.67;;;0.73;;
2219;SDS011;1116;51.502;7.414;2024-03-02T12:50:47;1.65;;;0.80;;
2219;SDS011;1116;51.502;7.414;2024-03-02T12:53:17;6.65;;;0.60;;
2219;SDS011;1116;51.502;7.414;2024-03-02T12:55:47;1.50;;;0.65;;
2219;SDS011;1116;51.502;7.414;2024-03-02T12:58:21;0.50;;;0.40;;
2219;SDS011;1116;51.502;7.414;2024-03-02T13:01:05;1.35;;;0.73;;
2219;SDS011;1116;51.502;7.414;2024-03-02T13:03:37;1.00;;;0.63;;
2219;SDS011;1116;51.502;7.414;2024-03-02T13:06:08;1.33;;;0.65;;
2219;SDS011;1116;51.502;7.414;2024-03-02T13:08:38;1.45;;;0.82;;
2219;SDS011;1116;51.502;7.414;2024-03-02T13:11:08;0.90;;;0.60;;
2219;SDS011;1116;51.502;7.414;2024-03-02T13:13:42;2.00;;;0.80;;
2219;SDS011;1116;51.502;7.414;2024-03-02T13:16:12;0.80;;;0.50;;
2219;SDS011;1116;51.502;7.414;2024-03-02T13:18:44;1.35;;;0.40;;
2219;SDS011;1116;51.502;7.414;2024-03-02T13:21:14;0.55;;;0.40;;
2219;SDS011;1116;51.502;7.414;2024-03-02T13:23:44;0.70;;;0.50;;
2219;SDS011;1116;51.502;7.414;2024-03-02T13:26:14;0.45;;;0.30;;
2219;SDS011;1116;51.502;7.414;2024-03-02T13:28:47;0.57;;;0.40;;
2219;SDS011;1116;51.502;7.414;2024-03-02T13:31:17;1.38;;;0.50;;
2219;SDS011;1116;51.502;7.414;2024-03-02T13:33:47;0.80;;;0.45;;
2219;SDS011;1116;51.502;7.414;2024-03-02T13:36:17;1.70;;;0.40;;
2219;SDS011;1116;51.502;7.414;2024-03-02T13:38:48;1.10;;;0.60;;
2219;SDS011;1116;51.502;7.414;2024-03-02T13:41:17;1.40;;;0.45;;
2219;SDS011;1116;51.502;7.414;2024-03-02T13:43:50;1.38;;;0.52;;
2219;SDS011;1116;51.502;7.414;2024-03-02T13:46:20;0.60;;;0.38;;
2219;SDS011;1116;51.502;7.414;2024-03-02T13:48:50;0.73;;;0.50;;
2219;SDS011;1116;51.502;7.414;2024-03-02T13:51:21;0.30;;;0.28;;
2219;SDS011;1116;51.502;7.414;2024-03-02T13:53:51;2.72;;;0.98;;
2219;SDS011;1116;51.502;7.414;2024-03-02T13:56:21;4.45;;;0.75;;
2219;SDS011;1116;51.502;7.414;2024-03-02T13:58:54;0.65;;;0.30;;
2219;SDS011;1116;51.502;7.414;2024-03-02T14:01:24;0.60;;;0.40;;
2219;SDS011;1116;51.502;7.414;2024-03-02T14:03:54;1.63;;;0.38;;
2219;SDS011;1116;51.502;7.414;2024-03-02T14:06:24;2.05;;;0.50;;
2219;SDS011;1116;51.502;7.414;2024-03-02T14:08:54;1.23;;;0.60;;
2219;SDS011;1116;51.502;7.414;2024-03-02T14:11:24;1.98;;;0.40;;
2219;SDS011;1116;51.502;7.414;2024-03-02T14:13:57;2.22;;;0.77;;
2219;SDS011;1116;51.502;7.414;2024-03-02T14:16:28;0.85;;;0.40;;
2219;SDS011;1116;51.502;7.414;2024-03-02T14:18:58;1.67;;;0.47;;
2219;SDS011;1116;51.502;7.414;2024-03-02T14:21:28;0.57;;;0.40;;
2219;SDS011;1116;51.502;7.414;2024-03-02T14:23:58;0.50;;;0.50;;
2219;SDS011;1116;51.502;7.414;2024-03-02T14:26:28;0.90;;;0.50;;
2219;SDS011;1116;51.502;7.414;2024-03-02T14:29:02;2.38;;;0.50;;
2219;SDS011;1116;51.502;7.414;2024-03-02T14:31:32;0.70;;;0.43;;
2219;SDS011;1116;51.502;7.414;2024-03-02T14:34:02;0.75;;;0.52;;
2219;SDS011;1116;51.502;7.414;2024-03-02T14:36:32;1.50;;;0.55;;
2219;SDS011;1116;51.502;7.414;2024-03-02T14:39:02;0.68;;;0.50;;
2219;SDS011;1116;51.502;7.414;2024-03-02T14:41:36;1.15;;;0.70;;
2219;SDS011;1116;51.502;7.414;2024-03-02T14:44:09;1.27;;;0.60;;
2219;SDS011;1116;51.502;7.414;2024-03-02T14:46:40;2.60;;;0.65;;
2219;SDS011;1116;51.502;7.414;2024-03-02T14:49:10;0.95;;;0.55;;
2219;SDS011;1116;51.502;7.414;2024-03-02T14:51:40;0.73;;;0.60;;
2219;SDS011;1116;51.502;7.414;2024-03-02T14:54:11;2.30;;;1.02;;
2219;SDS011;1116;51.502;7.414;2024-03-02T14:56:41;1.50;;;0.75;;
2219;SDS011;1116;51.502;7.414;2024-03-02T14:59:13;1.08;;;0.70;;
2219;SDS011;1116;51.502;7.414;2024-03-02T15:01:43;1.05;;;0.80;;
2219;SDS011;1116;51.502;7.414;2024-03-02T15:04:15;1.45;;;0.90;;
2219;SDS011;1116;51.502;7.414;2024-03-02T15:06:47;2.20;;;0.95;;
2219;SDS011;1116;51.502;7.414;2024-03-02T15:09:17;1.60;;;0.93;;
2219;SDS011;1116;51.502;7.414;2024-03-02T15:11:48;5.57;;;1.00;;
2219;SDS011;1116;51.502;7.414;2024-03-02T15:14:20;2.70;;;1.10;;
2219;SDS011;1116;51.502;7.414;2024-03-02T15:16:50;2.50;;;0.90;;
2219;SDS011;1116;51.502;7.414;2024-03-02T15:19:22;0.90;;;0.70;;
2219;SDS011;1116;51.502;7.414;2024-03-02T15:21:52;1.77;;;0.70;;
2219;SDS011;1116;51.502;7.414;2024-03-02T15:24:22;1.55;;;1.00;;
2219;SDS011;1116;51.502;7.414;2024-03-02T15:26:52;1.13;;;0.90;;
2219;SDS011;1116;51.502;7.414;2024-03-02T15:29:26;2.47;;;0.80;;
2219;SDS011;1116;51.502;7.414;2024-03-02T15:31:57;1.17;;;0.63;;
2219;SDS011;1116;51.502;7.414;2024-03-02T15:34:27;0.93;;;0.68;;
2219;SDS011;1116;51.502;7.414;2024-03-02T15:36:58;1.10;;;0.70;;
2219;SDS011;1116;51.502;7.414;2024-03-02T15:39:31;2.15;;;0.80;;
2219;SDS011;1116;51.502;7.414;2024-03-02T15:42:01;2.13;;;0.70;;
2219;SDS011;1116;51.502;7.414;2024-03-02T15:44:34;0.80;;;0.57;;
2219;SDS011;1116;51.502;7.414;2024-03-02T15:47:04;1.38;;;0.70;;
2219;SDS011;1116;51.502;7.414;2024-03-02T15:49:34;1.70;;;0.70;;